Terminal Aerodrome Forecast
Issued by NWS

Home | Current Version | Previous Version | Text Only | Print | Product List | Glossary On
Versions: 1 2 3 4 5 6 7 8 9 10 11 12 13 14 15 16 17 18 19 20 21 22
039
FTUS43 KLSX 171133
TAFSUS
TAF
KSUS 171133Z 1712/1812 VRB03KT P6SM BKN130
     FM171700 26006KT P6SM VCSH BKN090
     FM172300 32005KT P6SM BKN060
     FM180900 00000KT 6SM BR BKN025=

USA.gov is the U.S. government's official web portal to all federal, state and local government web resources and services.